createdAt,value
2022-10-25T00:02:01.475Z,6.53
2022-10-25T00:04:31.888Z,5.93
2022-10-25T00:07:00.497Z,6.00
2022-10-25T00:09:29.135Z,6.38
2022-10-25T00:11:55.737Z,5.82
2022-10-25T00:14:22.433Z,6.30
2022-10-25T00:16:49.095Z,6.60
2022-10-25T00:19:15.730Z,6.60
2022-10-25T00:21:42.365Z,6.50
2022-10-25T00:24:11.022Z,5.80
2022-10-25T00:26:37.750Z,6.35
2022-10-25T00:29:04.395Z,6.38
2022-10-25T00:31:31.027Z,6.35
2022-10-25T00:33:57.658Z,5.97
2022-10-25T00:36:26.104Z,6.40
2022-10-25T00:38:55.697Z,6.20
2022-10-25T00:41:26.026Z,6.28
2022-10-25T00:43:55.494Z,6.28
2022-10-25T00:46:27.000Z,6.25
2022-10-25T00:49:14.085Z,6.18
2022-10-25T00:51:57.606Z,7.80
2022-10-25T00:54:37.741Z,6.07
2022-10-25T00:57:19.725Z,6.15
2022-10-25T00:59:47.523Z,6.38
2022-10-25T01:02:16.339Z,6.22
2022-10-25T01:04:44.514Z,6.18
2022-10-25T01:07:11.195Z,6.47
2022-10-25T01:09:39.338Z,6.10
2022-10-25T01:12:07.315Z,6.53
2022-10-25T01:14:37.196Z,5.88
2022-10-25T01:17:35.018Z,6.47
2022-10-25T01:20:23.082Z,5.72
2022-10-25T01:23:10.888Z,6.15
2022-10-25T01:25:47.746Z,6.05
2022-10-25T01:28:47.297Z,5.35
2022-10-25T01:31:25.863Z,5.78
2022-10-25T01:33:55.181Z,6.03
2022-10-25T01:36:33.826Z,6.43
2022-10-25T01:39:20.161Z,5.82
2022-10-25T01:41:59.559Z,6.20
2022-10-25T01:44:58.253Z,6.22
2022-10-25T01:47:32.223Z,6.10
2022-10-25T01:50:08.292Z,5.30
2022-10-25T01:52:34.922Z,5.97
2022-10-25T01:55:02.167Z,6.53
2022-10-25T01:57:50.887Z,6.20
2022-10-25T02:00:19.569Z,6.22
2022-10-25T02:03:04.243Z,6.00
2022-10-25T02:05:42.494Z,6.07
2022-10-25T02:08:30.027Z,5.95
2022-10-25T02:11:16.954Z,5.30
2022-10-25T02:13:49.256Z,5.55
2022-10-25T02:16:22.235Z,5.45
2022-10-25T02:18:53.336Z,5.20
2022-10-25T02:21:20.852Z,5.68
2022-10-25T02:23:49.678Z,5.22
2022-10-25T02:26:18.462Z,5.07
2022-10-25T02:28:46.632Z,5.40
2022-10-25T02:31:16.912Z,5.53
2022-10-25T02:33:47.813Z,4.88
2022-10-25T02:36:19.200Z,5.13
2022-10-25T02:38:46.968Z,4.95
2022-10-25T02:41:13.999Z,4.78
2022-10-25T02:46:22.237Z,4.43
2022-10-25T02:48:50.348Z,5.20
2022-10-25T02:51:17.779Z,5.40
2022-10-25T02:53:44.476Z,5.38
2022-10-25T02:56:15.131Z,4.90
2022-10-25T02:58:44.430Z,4.90
2022-10-25T03:01:11.997Z,5.03
2022-10-25T03:03:40.617Z,4.95
2022-10-25T03:06:10.091Z,4.70
2022-10-25T03:08:38.731Z,4.68
2022-10-25T03:11:06.419Z,5.18
2022-10-25T03:13:33.262Z,4.75
2022-10-25T03:16:00.456Z,5.00
2022-10-25T03:18:28.417Z,4.90
2022-10-25T03:21:09.571Z,4.68
2022-10-25T03:23:37.789Z,4.35
2022-10-25T03:26:05.223Z,4.50
2022-10-25T03:28:33.231Z,4.65
2022-10-25T03:31:01.461Z,4.38
2022-10-25T03:33:28.167Z,3.90
2022-10-25T03:35:55.536Z,3.67
2022-10-25T03:38:22.598Z,3.92
2022-10-25T03:40:49.353Z,4.32
2022-10-25T03:43:15.963Z,3.67
2022-10-25T03:45:42.658Z,3.97
2022-10-25T03:48:09.310Z,3.90
2022-10-25T03:50:35.952Z,3.55
2022-10-25T03:53:04.016Z,3.60
2022-10-25T03:55:30.973Z,3.95
2022-10-25T03:57:57.622Z,3.42
2022-10-25T04:00:24.288Z,3.45
2022-10-25T04:03:01.861Z,3.47
2022-10-25T04:05:31.881Z,3.30
2022-10-25T04:07:58.988Z,3.10
2022-10-25T04:10:27.646Z,3.50
2022-10-25T04:12:55.106Z,3.30
2022-10-25T04:15:24.538Z,3.58
2022-10-25T04:17:52.016Z,2.90
2022-10-25T04:20:19.863Z,3.35
2022-10-25T04:22:52.282Z,2.70
2022-10-25T04:25:20.471Z,3.70
2022-10-25T04:27:47.357Z,4.80
2022-10-25T04:30:14.222Z,3.00
2022-10-25T04:32:43.450Z,3.00
2022-10-25T04:35:12.597Z,2.90
2022-10-25T04:37:42.407Z,2.90
2022-10-25T04:40:09.803Z,2.50
2022-10-25T04:42:36.434Z,2.67
2022-10-25T04:45:03.232Z,3.13
2022-10-25T04:47:33.614Z,3.15
2022-10-25T04:50:00.251Z,3.50
2022-10-25T04:52:29.128Z,2.67
2022-10-25T04:54:56.218Z,2.97
2022-10-25T04:57:22.851Z,3.30
2022-10-25T04:59:49.461Z,3.15
2022-10-25T05:02:16.405Z,3.05
2022-10-25T05:04:44.336Z,3.42
2022-10-25T05:07:11.750Z,3.22
2022-10-25T05:09:38.380Z,3.13
2022-10-25T05:12:05.349Z,3.67
2022-10-25T05:14:32.004Z,3.55
2022-10-25T05:17:01.358Z,3.60
2022-10-25T05:19:33.379Z,3.08
2022-10-25T05:22:02.639Z,3.38
2022-10-25T05:24:29.274Z,3.15
2022-10-25T05:26:58.195Z,3.53
2022-10-25T05:29:28.375Z,3.30
2022-10-25T05:31:55.048Z,2.75
2022-10-25T05:34:21.846Z,2.88
2022-10-25T05:36:48.477Z,3.88
2022-10-25T05:39:15.099Z,2.78
2022-10-25T05:41:41.750Z,3.10
2022-10-25T05:44:08.594Z,3.00
2022-10-25T05:46:35.286Z,2.97
2022-10-25T05:49:02.097Z,2.85
2022-10-25T05:51:35.693Z,3.15
2022-10-25T05:54:10.266Z,2.70
2022-10-25T05:56:38.023Z,2.95
2022-10-25T05:59:12.612Z,2.80
2022-10-25T06:01:41.861Z,2.60
2022-10-25T06:04:09.042Z,2.65
2022-10-25T06:06:37.311Z,2.70
2022-10-25T06:09:04.546Z,3.30
2022-10-25T06:11:31.847Z,2.65
2022-10-25T06:13:58.578Z,2.60
2022-10-25T06:16:25.532Z,2.72
2022-10-25T06:18:52.953Z,2.22
2022-10-25T06:21:22.139Z,2.70
2022-10-25T06:23:49.527Z,2.53
2022-10-25T06:26:19.792Z,2.53
2022-10-25T06:28:46.588Z,2.33
2022-10-25T06:31:15.673Z,2.45
2022-10-25T06:33:44.357Z,2.72
2022-10-25T06:36:13.683Z,2.30
2022-10-25T06:38:41.912Z,2.30
2022-10-25T06:41:13.217Z,2.63
2022-10-25T06:43:41.412Z,2.53
2022-10-25T06:46:11.171Z,2.63
2022-10-25T06:48:38.997Z,2.33
2022-10-25T06:51:07.375Z,2.25
2022-10-25T06:53:35.710Z,2.50
2022-10-25T06:56:04.987Z,2.72
2022-10-25T06:58:35.020Z,2.63
2022-10-25T07:01:03.086Z,2.50
2022-10-25T07:03:31.931Z,2.30
2022-10-25T07:06:03.391Z,2.33
2022-10-25T07:08:31.187Z,2.70
2022-10-25T07:10:58.060Z,2.80
2022-10-25T07:13:26.019Z,3.10
2022-10-25T07:15:52.824Z,3.28
2022-10-25T07:18:22.080Z,2.90
2022-10-25T07:20:50.848Z,2.78
2022-10-25T07:23:17.532Z,2.90
2022-10-25T07:25:45.646Z,3.03
2022-10-25T07:28:14.793Z,3.13
2022-10-25T07:30:51.224Z,3.33
2022-10-25T07:33:22.171Z,3.47
2022-10-25T07:36:09.537Z,3.20
2022-10-25T07:38:38.150Z,4.28
2022-10-25T07:41:04.898Z,3.53
2022-10-25T07:43:31.602Z,3.85
2022-10-25T07:45:58.257Z,3.45
2022-10-25T07:48:27.655Z,3.70
2022-10-25T07:50:54.262Z,3.50
2022-10-25T07:53:20.897Z,3.85
2022-10-25T07:55:51.962Z,2.88
2022-10-25T07:58:19.210Z,3.10
2022-10-25T08:00:46.431Z,3.40
2022-10-25T08:03:17.337Z,4.75
2022-10-25T08:05:47.988Z,3.00
2022-10-25T08:08:15.305Z,2.88
2022-10-25T08:10:43.591Z,3.20
2022-10-25T08:13:11.106Z,3.00
2022-10-25T08:15:38.539Z,3.47
2022-10-25T08:18:05.695Z,3.10
2022-10-25T08:21:00.172Z,3.03
2022-10-25T08:23:19.346Z,2.33
2022-10-25T08:25:46.420Z,2.90
2022-10-25T08:28:13.662Z,2.40
2022-10-25T08:30:41.764Z,2.40
2022-10-25T08:33:11.974Z,2.67
2022-10-25T08:35:42.669Z,2.92
2022-10-25T08:38:09.634Z,3.22
2022-10-25T08:40:54.143Z,2.80
2022-10-25T08:43:48.481Z,3.00
2022-10-25T08:46:46.647Z,2.80
2022-10-25T08:49:19.712Z,3.28
2022-10-25T08:51:48.633Z,3.45
2022-10-25T08:54:28.690Z,3.28
2022-10-25T08:57:15.542Z,3.88
2022-10-25T08:59:45.058Z,3.63
2022-10-25T09:02:44.061Z,3.53
2022-10-25T09:05:29.776Z,3.00
2022-10-25T09:08:15.097Z,3.03
2022-10-25T09:10:47.812Z,3.40
2022-10-25T09:16:12.230Z,3.45
2022-10-25T09:18:49.873Z,3.30
2022-10-25T09:21:38.076Z,3.88
2022-10-25T09:24:24.118Z,3.30
2022-10-25T09:26:53.520Z,2.97
2022-10-25T09:29:28.705Z,3.42
2022-10-25T09:31:58.767Z,4.03
2022-10-25T09:34:29.495Z,3.67
2022-10-25T09:37:05.729Z,3.50
2022-10-25T09:39:54.694Z,3.45
2022-10-25T09:42:30.517Z,3.90
2022-10-25T09:45:02.917Z,4.00
2022-10-25T09:47:52.807Z,3.95
2022-10-25T09:50:46.579Z,4.35
2022-10-25T09:53:17.563Z,3.83
2022-10-25T09:56:01.046Z,3.47
2022-10-25T09:58:33.292Z,4.05
2022-10-25T10:01:05.074Z,3.15
2022-10-25T10:03:37.169Z,3.00
2022-10-25T10:06:17.539Z,3.17
2022-10-25T10:08:51.418Z,3.40
2022-10-25T10:11:19.278Z,3.45
2022-10-25T10:14:00.122Z,3.72
2022-10-25T10:16:35.816Z,3.08
2022-10-25T10:21:45.937Z,2.80
2022-10-25T10:24:20.056Z,2.67
2022-10-25T10:26:51.833Z,3.30
2022-10-25T10:29:22.455Z,3.28
2022-10-25T10:31:59.175Z,2.92
2022-10-25T10:34:53.318Z,2.63
2022-10-25T10:37:27.644Z,2.90
2022-10-25T10:40:18.503Z,2.45
2022-10-25T10:42:45.306Z,3.00
2022-10-25T10:45:16.421Z,3.17
2022-10-25T10:47:52.063Z,2.60
2022-10-25T10:50:21.694Z,2.90
2022-10-25T10:52:58.217Z,2.78
2022-10-25T10:55:46.074Z,2.63
2022-10-25T11:00:52.354Z,3.25
2022-10-25T11:04:00.404Z,3.20
2022-10-25T11:06:35.193Z,2.83
2022-10-25T11:09:10.692Z,3.38
2022-10-25T11:11:37.376Z,2.92
2022-10-25T11:14:15.197Z,2.95
2022-10-25T11:16:44.546Z,2.85
2022-10-25T11:19:11.134Z,4.13
2022-10-25T11:21:56.172Z,2.75
2022-10-25T11:24:31.739Z,2.70
2022-10-25T11:27:35.006Z,3.08
2022-10-25T11:30:04.471Z,2.75
2022-10-25T11:32:56.955Z,2.42
2022-10-25T11:35:49.513Z,2.72
2022-10-25T11:38:50.321Z,2.70
2022-10-25T11:41:22.810Z,2.53
2022-10-25T11:44:14.438Z,3.25
2022-10-25T11:46:59.871Z,3.05
2022-10-25T11:49:56.036Z,3.03
2022-10-25T11:52:57.918Z,2.85
2022-10-25T11:55:30.250Z,2.58
2022-10-25T11:58:26.391Z,4.15
2022-10-25T12:01:14.660Z,3.45
2022-10-25T12:04:09.327Z,3.17
2022-10-25T12:06:48.566Z,2.90
2022-10-25T12:09:39.815Z,2.60
2022-10-25T12:12:16.438Z,2.83
2022-10-25T12:14:50.543Z,3.33
2022-10-25T12:17:30.131Z,2.75
2022-10-25T12:20:02.122Z,3.00
2022-10-25T12:22:41.782Z,2.60
2022-10-25T12:25:17.851Z,2.58
2022-10-25T12:27:48.976Z,2.83
2022-10-25T12:30:18.755Z,2.65
2022-10-25T12:32:57.395Z,2.53
2022-10-25T12:35:28.729Z,2.25
2022-10-25T12:37:59.107Z,2.95
2022-10-25T12:40:27.721Z,2.67
2022-10-25T12:43:24.894Z,2.50
2022-10-25T12:45:58.610Z,2.60
2022-10-25T12:48:43.712Z,2.53
2022-10-25T12:51:48.181Z,2.30
2022-10-25T12:54:31.636Z,3.00
2022-10-25T12:57:09.214Z,2.22
2022-10-25T13:00:09.050Z,2.47
2022-10-25T13:02:50.522Z,2.60
2022-10-25T13:05:23.014Z,2.45
2022-10-25T13:07:51.459Z,2.25
2022-10-25T13:10:23.868Z,2.42
2022-10-25T13:12:59.698Z,2.25
2022-10-25T13:15:35.079Z,2.50
2022-10-25T13:18:05.767Z,2.58
2022-10-25T13:20:35.133Z,2.92
2022-10-25T13:23:41.565Z,2.65
2022-10-25T13:26:15.130Z,2.30
2022-10-25T13:28:47.130Z,2.58
2022-10-25T13:31:35.692Z,2.42
2022-10-25T13:34:22.251Z,2.70
2022-10-25T13:36:49.991Z,3.35
2022-10-25T13:39:24.166Z,3.25
2022-10-25T13:41:51.167Z,3.70
2022-10-25T13:44:25.735Z,3.38
2022-10-25T13:46:54.327Z,3.58
2022-10-25T13:49:27.101Z,3.65
2022-10-25T13:51:59.632Z,4.47
2022-10-25T13:54:43.091Z,4.10
2022-10-25T13:57:48.918Z,3.85
2022-10-25T14:00:24.535Z,4.13
2022-10-25T14:03:06.250Z,3.72
2022-10-25T14:05:54.567Z,3.70
2022-10-25T14:08:44.288Z,2.92
2022-10-25T14:11:32.000Z,2.80
2022-10-25T14:14:26.869Z,2.85
2022-10-25T14:16:53.453Z,2.33
2022-10-25T14:19:23.758Z,2.00
2022-10-25T14:21:53.338Z,2.30
2022-10-25T14:24:20.979Z,2.05
2022-10-25T14:26:53.760Z,2.05
2022-10-25T14:29:22.873Z,2.55
2022-10-25T14:31:50.065Z,2.80
2022-10-25T14:34:22.290Z,3.00
2022-10-25T14:36:51.653Z,3.33
2022-10-25T14:39:28.137Z,2.85
2022-10-25T14:42:02.559Z,2.95
2022-10-25T14:44:45.820Z,2.58
2022-10-25T14:47:33.445Z,2.80
2022-10-25T14:50:01.686Z,2.83
2022-10-25T14:52:38.448Z,2.40
2022-10-25T14:55:09.489Z,2.83
2022-10-25T14:57:39.843Z,2.70
2022-10-25T15:00:06.979Z,2.97
2022-10-25T15:02:38.555Z,2.83
2022-10-25T15:05:07.350Z,2.63
2022-10-25T15:07:41.249Z,3.35
2022-10-25T15:10:37.662Z,3.20
2022-10-25T15:13:32.143Z,3.80
2022-10-25T15:16:03.055Z,3.17
2022-10-25T15:18:36.098Z,3.13
2022-10-25T15:21:06.689Z,3.15
2022-10-25T15:23:34.082Z,4.00
2022-10-25T15:26:29.598Z,4.05
2022-10-25T15:29:04.413Z,4.13
2022-10-25T15:31:33.409Z,3.90
2022-10-25T15:34:02.623Z,3.70
2022-10-25T15:36:34.771Z,3.95
2022-10-25T15:39:20.559Z,4.03
2022-10-25T15:41:47.241Z,3.53
2022-10-25T15:44:13.888Z,3.25
2022-10-25T15:46:41.639Z,3.78
2022-10-25T15:49:12.320Z,3.47
2022-10-25T15:51:42.378Z,3.47
2022-10-25T15:54:17.816Z,3.00
2022-10-25T15:56:46.115Z,3.63
2022-10-25T15:59:22.796Z,4.50
2022-10-25T16:01:52.892Z,5.28
2022-10-25T16:04:20.849Z,4.95
2022-10-25T16:06:48.908Z,4.57
2022-10-25T16:09:18.096Z,4.90
2022-10-25T16:11:51.630Z,4.22
2022-10-25T16:14:23.017Z,4.90
2022-10-25T16:16:53.435Z,4.78
2022-10-25T16:19:21.793Z,5.10
2022-10-25T16:21:54.310Z,5.50
2022-10-25T16:24:22.310Z,6.10
2022-10-25T16:26:50.834Z,5.47
2022-10-25T16:29:21.391Z,4.93
2022-10-25T16:31:48.754Z,6.07
2022-10-25T16:34:16.472Z,5.78
2022-10-25T16:36:44.046Z,5.40
2022-10-25T16:39:10.689Z,6.28
2022-10-25T16:41:39.919Z,5.10
2022-10-25T16:44:06.818Z,6.13
2022-10-25T16:46:33.595Z,5.53
2022-10-25T16:49:02.063Z,5.45
2022-10-25T16:51:29.096Z,5.88
2022-10-25T16:53:55.789Z,5.75
2022-10-25T16:56:22.811Z,6.72
2022-10-25T16:58:49.430Z,5.80
2022-10-25T17:01:34.594Z,5.95
2022-10-25T17:04:03.397Z,6.25
2022-10-25T17:06:45.436Z,6.90
2022-10-25T17:09:12.106Z,5.93
2022-10-25T17:11:39.024Z,6.38
2022-10-25T17:14:05.978Z,6.57
2022-10-25T17:16:32.813Z,5.55
2022-10-25T17:19:01.789Z,6.57
2022-10-25T17:21:28.733Z,6.93
2022-10-25T17:23:56.579Z,6.50
2022-10-25T17:26:23.192Z,6.47
2022-10-25T17:28:49.955Z,6.45
2022-10-25T17:31:17.506Z,7.75
2022-10-25T17:33:44.189Z,8.00
2022-10-25T17:36:16.802Z,8.45
2022-10-25T17:38:44.726Z,8.43
2022-10-25T17:41:12.668Z,8.73
2022-10-25T17:43:40.526Z,9.20
2022-10-25T17:46:30.481Z,8.25
2022-10-25T17:49:02.954Z,9.35
2022-10-25T17:51:31.934Z,9.52
2022-10-25T17:54:00.508Z,9.73
2022-10-25T17:56:28.714Z,13.35
2022-10-25T17:58:55.978Z,11.73
2022-10-25T18:01:27.287Z,13.73
2022-10-25T18:03:54.944Z,13.85
2022-10-25T18:06:24.270Z,16.95
2022-10-25T18:08:55.618Z,13.80
2022-10-25T18:11:23.987Z,13.18
2022-10-25T18:13:54.661Z,13.18
2022-10-25T18:16:21.556Z,13.07
2022-10-25T18:18:48.353Z,13.65
2022-10-25T18:21:15.827Z,13.18
2022-10-25T18:23:43.015Z,13.88
2022-10-25T18:26:11.208Z,13.15
2022-10-25T18:28:38.658Z,15.02
2022-10-25T18:31:10.659Z,16.05
2022-10-25T18:33:39.500Z,15.05
2022-10-25T18:36:12.628Z,15.50
2022-10-25T18:38:39.249Z,15.55
2022-10-25T18:41:12.734Z,13.63
2022-10-25T18:43:39.422Z,13.20
2022-10-25T18:46:06.127Z,12.95
2022-10-25T18:48:32.939Z,12.40
2022-10-25T18:51:03.858Z,12.57
2022-10-25T18:53:30.813Z,12.40
2022-10-25T18:55:58.418Z,11.85
2022-10-25T18:58:26.092Z,12.13
2022-10-25T19:00:54.205Z,11.63
2022-10-25T19:03:21.927Z,11.00
2022-10-25T19:05:58.720Z,11.10
2022-10-25T19:08:27.002Z,10.68
2022-10-25T19:10:53.747Z,9.70
2022-10-25T19:13:20.524Z,10.25
2022-10-25T19:15:48.051Z,10.02
2022-10-25T19:18:15.381Z,9.57
2022-10-25T19:20:46.247Z,10.02
2022-10-25T19:23:13.439Z,10.57
2022-10-25T19:25:40.147Z,9.73
2022-10-25T19:28:06.946Z,10.20
2022-10-25T19:30:37.716Z,8.80
2022-10-25T19:33:04.919Z,9.02
2022-10-25T19:35:31.883Z,8.52
2022-10-25T19:38:00.085Z,9.52
2022-10-25T19:40:26.859Z,9.52
2022-10-25T19:42:53.511Z,10.23
2022-10-25T19:45:20.210Z,8.95
2022-10-25T19:47:47.128Z,10.15
2022-10-25T19:50:15.994Z,10.32
2022-10-25T19:52:43.783Z,9.88
2022-10-25T19:55:10.576Z,9.80
2022-10-25T19:57:38.807Z,10.30
2022-10-25T20:00:09.872Z,11.00
2022-10-25T20:02:40.867Z,10.75
2022-10-25T20:05:08.078Z,11.30
2022-10-25T20:07:36.277Z,12.30
2022-10-25T20:10:02.978Z,15.95
2022-10-25T20:12:31.036Z,15.38
2022-10-25T20:14:57.644Z,17.15
2022-10-25T20:17:25.451Z,12.93
2022-10-25T20:19:52.133Z,13.02
2022-10-25T20:22:18.806Z,12.48
2022-10-25T20:24:45.406Z,12.10
2022-10-25T20:27:13.188Z,11.73
2022-10-25T20:29:44.100Z,13.18
2022-10-25T20:32:14.411Z,12.98
2022-10-25T20:34:41.913Z,12.65
2022-10-25T20:37:08.506Z,14.93
2022-10-25T20:39:37.269Z,15.18
2022-10-25T20:42:06.225Z,14.98
2022-10-25T20:44:33.877Z,14.80
2022-10-25T20:47:00.626Z,16.05
2022-10-25T20:49:32.043Z,15.38
2022-10-25T20:51:58.922Z,14.75
2022-10-25T20:54:25.521Z,15.15
2022-10-25T20:56:52.175Z,16.25
2022-10-25T20:59:18.803Z,15.50
2022-10-25T21:01:45.479Z,15.45
2022-10-25T21:04:12.231Z,14.98
2022-10-25T21:06:38.873Z,15.73
2022-10-25T21:09:05.487Z,15.73
2022-10-25T21:11:32.119Z,15.73
2022-10-25T21:13:58.763Z,16.13
2022-10-25T21:16:25.431Z,35.97
2022-10-25T21:18:52.109Z,29.35
2022-10-25T21:21:20.127Z,25.00
2022-10-25T21:23:47.631Z,18.85
2022-10-25T21:26:14.637Z,25.35
2022-10-25T21:28:41.641Z,26.38
2022-10-25T21:31:13.406Z,21.40
2022-10-25T21:33:49.462Z,32.22
2022-10-25T21:36:17.900Z,23.85
2022-10-25T21:38:44.550Z,25.52
2022-10-25T21:41:15.642Z,38.53
2022-10-25T21:43:47.829Z,49.60
2022-10-25T21:46:16.432Z,31.27
2022-10-25T21:48:44.642Z,32.15
2022-10-25T21:51:12.682Z,24.95
2022-10-25T21:53:40.149Z,18.30
2022-10-25T21:56:15.547Z,16.33
2022-10-25T21:58:45.071Z,16.70
2022-10-25T22:01:17.389Z,15.88
2022-10-25T22:03:44.175Z,16.65
2022-10-25T22:06:13.981Z,15.27
2022-10-25T22:08:42.662Z,15.05
2022-10-25T22:11:19.529Z,18.60
2022-10-25T22:13:46.993Z,15.23
2022-10-25T22:16:19.652Z,14.55
2022-10-25T22:19:00.989Z,15.82
2022-10-25T22:21:29.747Z,15.90
2022-10-25T22:23:56.558Z,16.25
2022-10-25T22:26:23.554Z,15.55
2022-10-25T22:28:58.573Z,17.80
2022-10-25T22:31:26.607Z,16.23
2022-10-25T22:33:55.028Z,16.42
2022-10-25T22:36:23.346Z,17.38
2022-10-25T22:38:50.008Z,16.35
2022-10-25T22:41:19.293Z,16.65
2022-10-25T22:43:47.107Z,16.80
2022-10-25T22:46:20.516Z,16.90
2022-10-25T22:48:47.113Z,16.52
2022-10-25T22:51:14.083Z,16.60
2022-10-25T22:53:42.515Z,17.60
2022-10-25T22:56:18.639Z,18.38
2022-10-25T22:58:53.856Z,17.67
2022-10-25T23:01:34.880Z,18.30
2022-10-25T23:04:02.537Z,17.92
2022-10-25T23:06:34.752Z,17.73
2022-10-25T23:09:08.253Z,18.27
2022-10-25T23:11:37.035Z,17.23
2022-10-25T23:14:04.111Z,17.27
2022-10-25T23:16:31.084Z,17.10
2022-10-25T23:18:57.885Z,16.38
2022-10-25T23:21:28.587Z,17.05
2022-10-25T23:23:57.547Z,18.23
2022-10-25T23:26:34.900Z,18.13
2022-10-25T23:29:02.251Z,17.98
2022-10-25T23:31:29.925Z,18.05
2022-10-25T23:33:58.652Z,18.35
2022-10-25T23:36:28.549Z,17.02
2022-10-25T23:38:55.968Z,16.77
2022-10-25T23:41:23.414Z,17.05
2022-10-25T23:43:50.410Z,17.67
2022-10-25T23:46:17.007Z,15.85
2022-10-25T23:48:44.711Z,16.73
2022-10-25T23:51:13.826Z,16.42
2022-10-25T23:53:41.115Z,16.23
2022-10-25T23:56:11.645Z,16.33
2022-10-25T23:58:39.866Z,15.27
